sensor_id;sensor_type;location;lat;lon;timestamp;temperature;humidity
80218;DHT22;69533;37.974;23.708;2023-04-24T00:01:43;22.90;36.80
80218;DHT22;69533;37.974;23.708;2023-04-24T00:04:08;22.90;36.70
80218;DHT22;69533;37.974;23.708;2023-04-24T00:06:36;23.00;36.80
80218;DHT22;69533;37.974;23.708;2023-04-24T00:09:03;22.90;36.80
80218;DHT22;69533;37.974;23.708;2023-04-24T00:11:29;22.90;36.80
80218;DHT22;69533;37.974;23.708;2023-04-24T00:13:56;22.90;36.80
80218;DHT22;69533;37.974;23.708;2023-04-24T00:16:22;22.90;36.80
80218;DHT22;69533;37.974;23.708;2023-04-24T00:18:48;22.90;36.80
80218;DHT22;69533;37.974;23.708;2023-04-24T00:21:15;22.90;36.80
80218;DHT22;69533;37.974;23.708;2023-04-24T00:23:43;22.90;36.90
80218;DHT22;69533;37.974;23.708;2023-04-24T00:26:09;22.90;36.90
80218;DHT22;69533;37.974;23.708;2023-04-24T00:28:35;22.90;37.00
80218;DHT22;69533;37.974;23.708;2023-04-24T00:31:01;22.90;37.00
80218;DHT22;69533;37.974;23.708;2023-04-24T00:33:27;22.90;37.00
80218;DHT22;69533;37.974;23.708;2023-04-24T00:35:52;22.90;37.10
80218;DHT22;69533;37.974;23.708;2023-04-24T00:38:18;22.90;37.10
80218;DHT22;69533;37.974;23.708;2023-04-24T00:40:44;22.90;37.10
80218;DHT22;69533;37.974;23.708;2023-04-24T00:43:11;22.90;37.10
80218;DHT22;69533;37.974;23.708;2023-04-24T00:45:37;22.80;37.10
80218;DHT22;69533;37.974;23.708;2023-04-24T00:48:04;22.80;37.10
80218;DHT22;69533;37.974;23.708;2023-04-24T00:50:30;22.80;37.10
80218;DHT22;69533;37.974;23.708;2023-04-24T00:52:56;22.80;37.20
80218;DHT22;69533;37.974;23.708;2023-04-24T00:55:21;22.80;37.20
80218;DHT22;69533;37.974;23.708;2023-04-24T00:57:48;22.80;37.20
80218;DHT22;69533;37.974;23.708;2023-04-24T01:00:15;22.80;37.20
80218;DHT22;69533;37.974;23.708;2023-04-24T01:02:43;22.80;37.20
80218;DHT22;69533;37.974;23.708;2023-04-24T01:05:12;22.80;37.20
80218;DHT22;69533;37.974;23.708;2023-04-24T01:07:39;22.80;37.20
80218;DHT22;69533;37.974;23.708;2023-04-24T01:10:07;22.80;37.20
80218;DHT22;69533;37.974;23.708;2023-04-24T01:12:34;22.80;37.30
80218;DHT22;69533;37.974;23.708;2023-04-24T01:15:00;22.80;37.30
80218;DHT22;69533;37.974;23.708;2023-04-24T01:17:26;22.80;37.30
80218;DHT22;69533;37.974;23.708;2023-04-24T01:19:52;22.80;37.40
80218;DHT22;69533;37.974;23.708;2023-04-24T01:22:22;22.80;37.40
80218;DHT22;69533;37.974;23.708;2023-04-24T01:24:48;22.70;37.40
80218;DHT22;69533;37.974;23.708;2023-04-24T01:27:14;22.70;37.40
80218;DHT22;69533;37.974;23.708;2023-04-24T01:29:40;22.70;37.50
80218;DHT22;69533;37.974;23.708;2023-04-24T01:32:06;22.70;37.50
80218;DHT22;69533;37.974;23.708;2023-04-24T01:34:32;22.70;37.50
80218;DHT22;69533;37.974;23.708;2023-04-24T01:36:58;22.70;37.50
80218;DHT22;69533;37.974;23.708;2023-04-24T01:39:24;22.70;37.60
80218;DHT22;69533;37.974;23.708;2023-04-24T01:41:51;22.60;37.50
80218;DHT22;69533;37.974;23.708;2023-04-24T01:44:18;22.60;37.60
80218;DHT22;69533;37.974;23.708;2023-04-24T01:46:44;22.60;37.60
80218;DHT22;69533;37.974;23.708;2023-04-24T01:49:10;22.70;37.70
80218;DHT22;69533;37.974;23.708;2023-04-24T01:51:36;22.60;37.60
80218;DHT22;69533;37.974;23.708;2023-04-24T01:54:02;22.60;37.70
80218;DHT22;69533;37.974;23.708;2023-04-24T01:56:33;22.60;37.70
80218;DHT22;69533;37.974;23.708;2023-04-24T01:59:00;22.60;37.70
80218;DHT22;69533;37.974;23.708;2023-04-24T02:01:27;22.60;37.70
80218;DHT22;69533;37.974;23.708;2023-04-24T02:03:52;22.60;37.80
80218;DHT22;69533;37.974;23.708;2023-04-24T02:06:18;22.60;37.70
80218;DHT22;69533;37.974;23.708;2023-04-24T02:08:44;22.60;37.90
80218;DHT22;69533;37.974;23.708;2023-04-24T02:11:10;22.60;37.90
80218;DHT22;69533;37.974;23.708;2023-04-24T02:13:35;22.60;37.90
80218;DHT22;69533;37.974;23.708;2023-04-24T02:16:01;22.60;38.00
80218;DHT22;69533;37.974;23.708;2023-04-24T02:18:27;22.50;37.90
80218;DHT22;69533;37.974;23.708;2023-04-24T02:20:53;22.50;37.90
80218;DHT22;69533;37.974;23.708;2023-04-24T02:23:19;22.50;37.90
80218;DHT22;69533;37.974;23.708;2023-04-24T02:25:45;22.50;38.10
80218;DHT22;69533;37.974;23.708;2023-04-24T02:28:11;22.50;38.00
80218;DHT22;69533;37.974;23.708;2023-04-24T02:30:36;22.50;38.10
80218;DHT22;69533;37.974;23.708;2023-04-24T02:33:02;22.50;38.10
80218;DHT22;69533;37.974;23.708;2023-04-24T02:35:28;22.50;38.10
80218;DHT22;69533;37.974;23.708;2023-04-24T02:37:55;22.50;38.20
80218;DHT22;69533;37.974;23.708;2023-04-24T02:40:20;22.40;38.20
80218;DHT22;69533;37.974;23.708;2023-04-24T02:42:46;22.40;38.20
80218;DHT22;69533;37.974;23.708;2023-04-24T02:45:12;22.40;38.10
80218;DHT22;69533;37.974;23.708;2023-04-24T02:47:38;22.40;38.10
80218;DHT22;69533;37.974;23.708;2023-04-24T02:50:04;22.40;38.20
80218;DHT22;69533;37.974;23.708;2023-04-24T02:52:30;22.40;38.20
80218;DHT22;69533;37.974;23.708;2023-04-24T02:54:55;22.40;38.20
80218;DHT22;69533;37.974;23.708;2023-04-24T02:57:21;22.40;38.30
80218;DHT22;69533;37.974;23.708;2023-04-24T02:59:47;22.40;38.30
80218;DHT22;69533;37.974;23.708;2023-04-24T03:02:12;22.40;38.30
80218;DHT22;69533;37.974;23.708;2023-04-24T03:04:38;22.40;38.30
80218;DHT22;69533;37.974;23.708;2023-04-24T03:07:05;22.40;38.40
80218;DHT22;69533;37.974;23.708;2023-04-24T03:09:31;22.40;38.40
80218;DHT22;69533;37.974;23.708;2023-04-24T03:11:57;22.40;38.40
80218;DHT22;69533;37.974;23.708;2023-04-24T03:14:23;22.40;38.50
80218;DHT22;69533;37.974;23.708;2023-04-24T03:16:49;22.40;38.50
80218;DHT22;69533;37.974;23.708;2023-04-24T03:19:15;22.40;38.50
80218;DHT22;69533;37.974;23.708;2023-04-24T03:21:41;22.40;38.50
80218;DHT22;69533;37.974;23.708;2023-04-24T03:24:08;22.30;38.50
80218;DHT22;69533;37.974;23.708;2023-04-24T03:26:34;22.40;38.60
80218;DHT22;69533;37.974;23.708;2023-04-24T03:29:00;22.30;38.50
80218;DHT22;69533;37.974;23.708;2023-04-24T03:31:26;22.30;38.50
80218;DHT22;69533;37.974;23.708;2023-04-24T03:33:52;22.30;38.60
80218;DHT22;69533;37.974;23.708;2023-04-24T03:36:17;22.30;38.70
80218;DHT22;69533;37.974;23.708;2023-04-24T03:38:44;22.40;39.00
80218;DHT22;69533;37.974;23.708;2023-04-24T03:41:10;22.40;39.40
80218;DHT22;69533;37.974;23.708;2023-04-24T03:43:37;22.40;39.50
80218;DHT22;69533;37.974;23.708;2023-04-24T03:46:03;22.40;39.50
80218;DHT22;69533;37.974;23.708;2023-04-24T03:48:29;22.50;39.30
80218;DHT22;69533;37.974;23.708;2023-04-24T03:50:54;22.50;39.20
80218;DHT22;69533;37.974;23.708;2023-04-24T03:53:20;22.50;39.20
80218;DHT22;69533;37.974;23.708;2023-04-24T03:55:46;22.50;39.20
80218;DHT22;69533;37.974;23.708;2023-04-24T03:58:12;22.60;39.10
80218;DHT22;69533;37.974;23.708;2023-04-24T04:00:40;22.50;39.00
80218;DHT22;69533;37.974;23.708;2023-04-24T04:03:06;22.60;39.00
80218;DHT22;69533;37.974;23.708;2023-04-24T04:05:31;22.50;39.00
80218;DHT22;69533;37.974;23.708;2023-04-24T04:07:57;22.50;39.10
80218;DHT22;69533;37.974;23.708;2023-04-24T04:10:23;22.50;39.10
80218;DHT22;69533;37.974;23.708;2023-04-24T04:12:49;22.50;39.20
80218;DHT22;69533;37.974;23.708;2023-04-24T04:15:15;22.50;40.30
80218;DHT22;69533;37.974;23.708;2023-04-24T04:17:40;22.50;39.30
80218;DHT22;69533;37.974;23.708;2023-04-24T04:20:07;22.50;39.90
80218;DHT22;69533;37.974;23.708;2023-04-24T04:22:36;22.50;40.10
80218;DHT22;69533;37.974;23.708;2023-04-24T04:25:02;22.60;40.50
80218;DHT22;69533;37.974;23.708;2023-04-24T04:27:28;22.60;40.50
80218;DHT22;69533;37.974;23.708;2023-04-24T04:30:01;22.60;40.50
80218;DHT22;69533;37.974;23.708;2023-04-24T04:32:31;22.60;40.40
80218;DHT22;69533;37.974;23.708;2023-04-24T04:34:58;22.70;40.30
80218;DHT22;69533;37.974;23.708;2023-04-24T04:37:27;22.70;40.20
80218;DHT22;69533;37.974;23.708;2023-04-24T04:39:54;22.80;40.10
80218;DHT22;69533;37.974;23.708;2023-04-24T04:42:19;22.80;40.00
80218;DHT22;69533;37.974;23.708;2023-04-24T04:44:45;22.80;39.80
80218;DHT22;69533;37.974;23.708;2023-04-24T04:47:11;22.80;39.70
80218;DHT22;69533;37.974;23.708;2023-04-24T04:49:40;22.90;39.60
80218;DHT22;69533;37.974;23.708;2023-04-24T04:52:06;22.90;39.40
80218;DHT22;69533;37.974;23.708;2023-04-24T04:54:32;23.00;39.40
80218;DHT22;69533;37.974;23.708;2023-04-24T04:56:57;23.00;39.20
80218;DHT22;69533;37.974;23.708;2023-04-24T04:59:24;23.00;39.10
80218;DHT22;69533;37.974;23.708;2023-04-24T05:01:50;23.10;39.00
80218;DHT22;69533;37.974;23.708;2023-04-24T05:04:15;23.10;38.90
80218;DHT22;69533;37.974;23.708;2023-04-24T05:06:41;23.20;38.80
80218;DHT22;69533;37.974;23.708;2023-04-24T05:09:07;23.30;38.80
80218;DHT22;69533;37.974;23.708;2023-04-24T05:11:33;23.30;38.50
80218;DHT22;69533;37.974;23.708;2023-04-24T05:13:59;23.40;38.30
80218;DHT22;69533;37.974;23.708;2023-04-24T05:16:24;23.50;38.20
80218;DHT22;69533;37.974;23.708;2023-04-24T05:18:50;23.60;38.10
80218;DHT22;69533;37.974;23.708;2023-04-24T05:21:16;23.60;38.00
80218;DHT22;69533;37.974;23.708;2023-04-24T05:23:42;23.70;37.80
80218;DHT22;69533;37.974;23.708;2023-04-24T05:26:07;23.80;37.60
80218;DHT22;69533;37.974;23.708;2023-04-24T05:28:33;23.80;37.50
80218;DHT22;69533;37.974;23.708;2023-04-24T05:31:02;23.90;37.40
80218;DHT22;69533;37.974;23.708;2023-04-24T05:33:28;24.00;37.20
80218;DHT22;69533;37.974;23.708;2023-04-24T05:35:54;24.10;37.10
80218;DHT22;69533;37.974;23.708;2023-04-24T05:38:19;24.20;37.00
80218;DHT22;69533;37.974;23.708;2023-04-24T05:40:46;24.20;36.80
80218;DHT22;69533;37.974;23.708;2023-04-24T05:43:12;24.30;36.70
80218;DHT22;69533;37.974;23.708;2023-04-24T05:45:38;24.40;36.60
80218;DHT22;69533;37.974;23.708;2023-04-24T05:48:04;24.50;36.40
80218;DHT22;69533;37.974;23.708;2023-04-24T05:50:31;24.60;36.30
80218;DHT22;69533;37.974;23.708;2023-04-24T05:52:56;24.60;36.10
80218;DHT22;69533;37.974;23.708;2023-04-24T05:55:27;24.70;36.00
80218;DHT22;69533;37.974;23.708;2023-04-24T05:57:53;24.80;35.80
80218;DHT22;69533;37.974;23.708;2023-04-24T06:00:19;24.90;35.50
80218;DHT22;69533;37.974;23.708;2023-04-24T06:02:45;25.00;35.30
80218;DHT22;69533;37.974;23.708;2023-04-24T06:05:11;25.10;35.10
80218;DHT22;69533;37.974;23.708;2023-04-24T06:07:37;25.20;35.10
80218;DHT22;69533;37.974;23.708;2023-04-24T06:10:03;25.30;34.80
80218;DHT22;69533;37.974;23.708;2023-04-24T06:12:29;25.40;34.70
80218;DHT22;69533;37.974;23.708;2023-04-24T06:14:55;25.50;34.60
80218;DHT22;69533;37.974;23.708;2023-04-24T06:17:23;25.60;34.40
80218;DHT22;69533;37.974;23.708;2023-04-24T06:19:49;25.70;34.30
80218;DHT22;69533;37.974;23.708;2023-04-24T06:22:15;25.80;34.20
80218;DHT22;69533;37.974;23.708;2023-04-24T06:24:40;25.90;34.10
80218;DHT22;69533;37.974;23.708;2023-04-24T06:27:06;25.90;33.90
80218;DHT22;69533;37.974;23.708;2023-04-24T06:29:33;26.00;33.80
80218;DHT22;69533;37.974;23.708;2023-04-24T06:32:00;26.10;33.80
80218;DHT22;69533;37.974;23.708;2023-04-24T06:34:26;26.20;33.80
80218;DHT22;69533;37.974;23.708;2023-04-24T06:36:51;26.20;33.50
80218;DHT22;69533;37.974;23.708;2023-04-24T06:39:17;26.30;33.40
80218;DHT22;69533;37.974;23.708;2023-04-24T06:41:43;26.30;33.20
80218;DHT22;69533;37.974;23.708;2023-04-24T06:44:09;26.40;33.20
80218;DHT22;69533;37.974;23.708;2023-04-24T06:46:35;26.40;33.10
80218;DHT22;69533;37.974;23.708;2023-04-24T06:49:00;26.50;33.10
80218;DHT22;69533;37.974;23.708;2023-04-24T06:51:27;26.50;33.10
80218;DHT22;69533;37.974;23.708;2023-04-24T06:53:54;26.50;33.10
80218;DHT22;69533;37.974;23.708;2023-04-24T06:56:21;26.50;33.00
80218;DHT22;69533;37.974;23.708;2023-04-24T06:58:47;26.50;33.00
80218;DHT22;69533;37.974;23.708;2023-04-24T07:01:13;26.50;33.10
80218;DHT22;69533;37.974;23.708;2023-04-24T07:03:39;26.50;33.10
80218;DHT22;69533;37.974;23.708;2023-04-24T07:06:05;26.50;33.10
80218;DHT22;69533;37.974;23.708;2023-04-24T07:08:31;26.50;33.10
80218;DHT22;69533;37.974;23.708;2023-04-24T07:10:58;26.50;33.10
80218;DHT22;69533;37.974;23.708;2023-04-24T07:13:24;26.50;33.10
80218;DHT22;69533;37.974;23.708;2023-04-24T07:15:50;26.50;33.10
80218;DHT22;69533;37.974;23.708;2023-04-24T07:18:18;26.50;33.20
80218;DHT22;69533;37.974;23.708;2023-04-24T07:20:43;26.50;33.30
80218;DHT22;69533;37.974;23.708;2023-04-24T07:23:10;26.50;33.40
80218;DHT22;69533;37.974;23.708;2023-04-24T07:25:36;26.50;33.40
80218;DHT22;69533;37.974;23.708;2023-04-24T07:28:02;26.40;33.50
80218;DHT22;69533;37.974;23.708;2023-04-24T07:30:28;26.40;33.50
80218;DHT22;69533;37.974;23.708;2023-04-24T07:33:00;26.40;33.50
80218;DHT22;69533;37.974;23.708;2023-04-24T07:35:26;26.40;33.60
80218;DHT22;69533;37.974;23.708;2023-04-24T07:37:57;26.40;33.60
80218;DHT22;69533;37.974;23.708;2023-04-24T07:40:22;26.30;33.60
80218;DHT22;69533;37.974;23.708;2023-04-24T07:42:48;26.30;33.60
80218;DHT22;69533;37.974;23.708;2023-04-24T07:45:15;26.30;33.60
80218;DHT22;69533;37.974;23.708;2023-04-24T07:47:45;26.30;33.70
80218;DHT22;69533;37.974;23.708;2023-04-24T07:50:12;26.30;34.70
80218;DHT22;69533;37.974;23.708;2023-04-24T07:52:38;26.20;33.60
80218;DHT22;69533;37.974;23.708;2023-04-24T07:55:04;26.20;33.80
80218;DHT22;69533;37.974;23.708;2023-04-24T07:57:36;26.20;33.80
80218;DHT22;69533;37.974;23.708;2023-04-24T08:00:03;26.20;33.90
80218;DHT22;69533;37.974;23.708;2023-04-24T08:02:29;26.20;34.00
80218;DHT22;69533;37.974;23.708;2023-04-24T08:04:55;26.20;34.10
80218;DHT22;69533;37.974;23.708;2023-04-24T08:07:21;26.20;34.20
80218;DHT22;69533;37.974;23.708;2023-04-24T08:09:47;26.20;34.20
80218;DHT22;69533;37.974;23.708;2023-04-24T08:12:14;26.20;34.20
80218;DHT22;69533;37.974;23.708;2023-04-24T08:14:43;26.20;34.30
80218;DHT22;69533;37.974;23.708;2023-04-24T08:17:09;26.20;34.40
80218;DHT22;69533;37.974;23.708;2023-04-24T08:19:34;26.20;34.40
80218;DHT22;69533;37.974;23.708;2023-04-24T08:22:03;26.20;34.50
80218;DHT22;69533;37.974;23.708;2023-04-24T08:24:29;26.30;34.60
80218;DHT22;69533;37.974;23.708;2023-04-24T08:26:55;26.20;34.50
80218;DHT22;69533;37.974;23.708;2023-04-24T08:29:23;26.20;34.60
80218;DHT22;69533;37.974;23.708;2023-04-24T08:31:49;26.20;34.70
80218;DHT22;69533;37.974;23.708;2023-04-24T08:34:16;26.30;34.90
80218;DHT22;69533;37.974;23.708;2023-04-24T08:36:42;26.30;35.10
80218;DHT22;69533;37.974;23.708;2023-04-24T08:39:08;26.30;35.20
80218;DHT22;69533;37.974;23.708;2023-04-24T08:41:34;26.30;35.20
80218;DHT22;69533;37.974;23.708;2023-04-24T08:44:02;26.30;35.40
80218;DHT22;69533;37.974;23.708;2023-04-24T08:46:29;26.30;35.40
80218;DHT22;69533;37.974;23.708;2023-04-24T08:48:56;26.30;35.50
80218;DHT22;69533;37.974;23.708;2023-04-24T08:51:22;26.30;35.60
80218;DHT22;69533;37.974;23.708;2023-04-24T08:53:52;26.30;35.60
80218;DHT22;69533;37.974;23.708;2023-04-24T08:56:19;26.30;35.60
80218;DHT22;69533;37.974;23.708;2023-04-24T08:58:45;26.40;35.50
80218;DHT22;69533;37.974;23.708;2023-04-24T09:01:12;26.40;35.40
80218;DHT22;69533;37.974;23.708;2023-04-24T09:03:38;26.40;35.40
80218;DHT22;69533;37.974;23.708;2023-04-24T09:06:06;26.30;35.30
80218;DHT22;69533;37.974;23.708;2023-04-24T09:08:33;26.30;35.40
80218;DHT22;69533;37.974;23.708;2023-04-24T09:10:59;26.30;35.20
80218;DHT22;69533;37.974;23.708;2023-04-24T09:13:28;26.30;35.20
80218;DHT22;69533;37.974;23.708;2023-04-24T09:15:54;26.30;35.20
80218;DHT22;69533;37.974;23.708;2023-04-24T09:18:19;26.30;35.10
80218;DHT22;69533;37.974;23.708;2023-04-24T09:21:07;26.20;35.10
80218;DHT22;69533;37.974;23.708;2023-04-24T09:23:33;26.20;35.20
80218;DHT22;69533;37.974;23.708;2023-04-24T09:26:00;26.20;35.10
80218;DHT22;69533;37.974;23.708;2023-04-24T09:28:31;26.20;35.20
80218;DHT22;69533;37.974;23.708;2023-04-24T09:31:13;26.20;35.20
80218;DHT22;69533;37.974;23.708;2023-04-24T09:33:57;26.20;35.20
80218;DHT22;69533;37.974;23.708;2023-04-24T09:36:42;26.20;35.20
80218;DHT22;69533;37.974;23.708;2023-04-24T09:39:11;26.20;35.40
80218;DHT22;69533;37.974;23.708;2023-04-24T09:41:51;26.20;35.50
80218;DHT22;69533;37.974;23.708;2023-04-24T09:44:22;26.20;35.70
80218;DHT22;69533;37.974;23.708;2023-04-24T09:46:58;26.20;35.70
80218;DHT22;69533;37.974;23.708;2023-04-24T09:51:50;26.20;35.70
80218;DHT22;69533;37.974;23.708;2023-04-24T09:54:21;26.20;35.80
80218;DHT22;69533;37.974;23.708;2023-04-24T09:56:50;26.20;35.80
80218;DHT22;69533;37.974;23.708;2023-04-24T09:59:18;26.20;35.80
80218;DHT22;69533;37.974;23.708;2023-04-24T10:01:47;26.20;35.90
80218;DHT22;69533;37.974;23.708;2023-04-24T10:06:54;26.20;36.00
80218;DHT22;69533;37.974;23.708;2023-04-24T10:09:22;26.30;36.00
80218;DHT22;69533;37.974;23.708;2023-04-24T10:11:52;26.20;36.00
80218;DHT22;69533;37.974;23.708;2023-04-24T10:14:21;26.20;36.00
80218;DHT22;69533;37.974;23.708;2023-04-24T10:16:48;26.20;36.10
80218;DHT22;69533;37.974;23.708;2023-04-24T10:19:15;26.20;36.10
80218;DHT22;69533;37.974;23.708;2023-04-24T10:21:43;26.20;36.10
80218;DHT22;69533;37.974;23.708;2023-04-24T10:24:20;26.20;36.20
80218;DHT22;69533;37.974;23.708;2023-04-24T10:26:46;26.20;36.20
80218;DHT22;69533;37.974;23.708;2023-04-24T10:29:36;26.20;36.10
80218;DHT22;69533;37.974;23.708;2023-04-24T10:32:07;26.20;36.20
80218;DHT22;69533;37.974;23.708;2023-04-24T10:34:32;26.20;36.20
80218;DHT22;69533;37.974;23.708;2023-04-24T10:36:58;26.20;36.20
80218;DHT22;69533;37.974;23.708;2023-04-24T10:39:24;26.30;36.30
80218;DHT22;69533;37.974;23.708;2023-04-24T10:41:50;26.20;36.30
80218;DHT22;69533;37.974;23.708;2023-04-24T10:44:18;26.20;37.30
80218;DHT22;69533;37.974;23.708;2023-04-24T10:46:45;26.20;36.40
80218;DHT22;69533;37.974;23.708;2023-04-24T10:49:11;26.20;36.30
80218;DHT22;69533;37.974;23.708;2023-04-24T10:51:50;26.30;37.40
80218;DHT22;69533;37.974;23.708;2023-04-24T10:54:35;26.20;36.30
80218;DHT22;69533;37.974;23.708;2023-04-24T10:59:50;26.20;36.40
80218;DHT22;69533;37.974;23.708;2023-04-24T11:02:36;26.20;36.40
80218;DHT22;69533;37.974;23.708;2023-04-24T11:05:06;26.20;36.40
80218;DHT22;69533;37.974;23.708;2023-04-24T11:10:46;26.20;36.60
80218;DHT22;69533;37.974;23.708;2023-04-24T11:13:23;26.20;36.50
80218;DHT22;69533;37.974;23.708;2023-04-24T11:16:15;26.20;36.60
80218;DHT22;69533;37.974;23.708;2023-04-24T11:18:44;26.10;36.50
80218;DHT22;69533;37.974;23.708;2023-04-24T11:21:19;26.10;36.50
80218;DHT22;69533;37.974;23.708;2023-04-24T11:23:46;26.10;36.60
80218;DHT22;69533;37.974;23.708;2023-04-24T11:26:20;26.10;36.50
80218;DHT22;69533;37.974;23.708;2023-04-24T11:28:50;26.10;36.60
80218;DHT22;69533;37.974;23.708;2023-04-24T11:31:39;26.10;36.50
80218;DHT22;69533;37.974;23.708;2023-04-24T11:34:12;26.10;36.40
80218;DHT22;69533;37.974;23.708;2023-04-24T11:36:42;26.10;36.30
80218;DHT22;69533;37.974;23.708;2023-04-24T11:39:16;26.10;36.20
80218;DHT22;69533;37.974;23.708;2023-04-24T11:41:42;26.10;36.20
80218;DHT22;69533;37.974;23.708;2023-04-24T11:44:09;26.10;36.20
80218;DHT22;69533;37.974;23.708;2023-04-24T11:46:36;26.10;36.20
80218;DHT22;69533;37.974;23.708;2023-04-24T11:49:05;26.10;36.20
80218;DHT22;69533;37.974;23.708;2023-04-24T11:51:31;26.00;36.30
80218;DHT22;69533;37.974;23.708;2023-04-24T11:53:59;26.10;36.30
80218;DHT22;69533;37.974;23.708;2023-04-24T11:56:25;26.10;36.40
80218;DHT22;69533;37.974;23.708;2023-04-24T11:58:54;26.10;36.40
80218;DHT22;69533;37.974;23.708;2023-04-24T12:01:20;26.10;36.40
80218;DHT22;69533;37.974;23.708;2023-04-24T12:03:50;26.00;36.50
80218;DHT22;69533;37.974;23.708;2023-04-24T12:06:16;26.00;36.60
80218;DHT22;69533;37.974;23.708;2023-04-24T12:08:46;26.00;36.70
80218;DHT22;69533;37.974;23.708;2023-04-24T12:11:15;26.00;36.70
80218;DHT22;69533;37.974;23.708;2023-04-24T12:13:41;26.00;36.90
80218;DHT22;69533;37.974;23.708;2023-04-24T12:16:07;26.00;36.80
80218;DHT22;69533;37.974;23.708;2023-04-24T12:18:33;26.00;37.00
80218;DHT22;69533;37.974;23.708;2023-04-24T12:21:21;26.00;37.00
80218;DHT22;69533;37.974;23.708;2023-04-24T12:23:48;25.90;37.00
80218;DHT22;69533;37.974;23.708;2023-04-24T12:26:18;26.00;37.00
80218;DHT22;69533;37.974;23.708;2023-04-24T12:28:47;26.00;37.00
80218;DHT22;69533;37.974;23.708;2023-04-24T12:31:13;26.00;37.00
80218;DHT22;69533;37.974;23.708;2023-04-24T12:33:39;26.00;36.90
80218;DHT22;69533;37.974;23.708;2023-04-24T12:36:05;26.00;36.80
80218;DHT22;69533;37.974;23.708;2023-04-24T12:38:31;26.00;36.80
80218;DHT22;69533;37.974;23.708;2023-04-24T12:41:14;26.00;36.70
80218;DHT22;69533;37.974;23.708;2023-04-24T12:43:51;26.00;36.70
80218;DHT22;69533;37.974;23.708;2023-04-24T12:46:17;26.00;36.70
80218;DHT22;69533;37.974;23.708;2023-04-24T12:48:43;26.00;36.50
80218;DHT22;69533;37.974;23.708;2023-04-24T12:51:09;26.00;36.50
80218;DHT22;69533;37.974;23.708;2023-04-24T12:53:34;26.00;36.50
80218;DHT22;69533;37.974;23.708;2023-04-24T12:56:00;26.00;36.50
80218;DHT22;69533;37.974;23.708;2023-04-24T12:58:26;26.00;36.40
80218;DHT22;69533;37.974;23.708;2023-04-24T13:00:52;26.00;36.40
80218;DHT22;69533;37.974;23.708;2023-04-24T13:03:18;26.00;36.30
80218;DHT22;69533;37.974;23.708;2023-04-24T13:05:44;26.00;36.10
80218;DHT22;69533;37.974;23.708;2023-04-24T13:08:10;26.00;36.00
80218;DHT22;69533;37.974;23.708;2023-04-24T13:10:36;25.90;35.90
80218;DHT22;69533;37.974;23.708;2023-04-24T13:13:03;26.00;35.80
80218;DHT22;69533;37.974;23.708;2023-04-24T13:15:29;26.00;35.60
80218;DHT22;69533;37.974;23.708;2023-04-24T13:17:54;25.90;35.40
80218;DHT22;69533;37.974;23.708;2023-04-24T13:20:20;25.90;35.30
80218;DHT22;69533;37.974;23.708;2023-04-24T13:22:46;25.90;35.20
80218;DHT22;69533;37.974;23.708;2023-04-24T13:25:12;25.90;35.20
80218;DHT22;69533;37.974;23.708;2023-04-24T13:27:40;25.90;35.30
80218;DHT22;69533;37.974;23.708;2023-04-24T13:30:08;25.90;35.40
80218;DHT22;69533;37.974;23.708;2023-04-24T13:32:34;25.90;35.60
80218;DHT22;69533;37.974;23.708;2023-04-24T13:35:00;25.80;35.50
80218;DHT22;69533;37.974;23.708;2023-04-24T13:37:26;25.80;35.50
80218;DHT22;69533;37.974;23.708;2023-04-24T13:39:52;25.80;35.50
80218;DHT22;69533;37.974;23.708;2023-04-24T13:42:19;25.80;35.50
80218;DHT22;69533;37.974;23.708;2023-04-24T13:44:45;25.70;35.60
80218;DHT22;69533;37.974;23.708;2023-04-24T13:47:11;25.70;35.80
80218;DHT22;69533;37.974;23.708;2023-04-24T13:49:37;25.70;35.90
80218;DHT22;69533;37.974;23.708;2023-04-24T13:52:03;25.70;36.00
80218;DHT22;69533;37.974;23.708;2023-04-24T13:54:29;25.70;36.00
80218;DHT22;69533;37.974;23.708;2023-04-24T13:56:57;25.60;36.10
80218;DHT22;69533;37.974;23.708;2023-04-24T13:59:23;25.60;36.30
80218;DHT22;69533;37.974;23.708;2023-04-24T14:01:50;25.60;36.40
80218;DHT22;69533;37.974;23.708;2023-04-24T14:04:16;25.50;36.40
80218;DHT22;69533;37.974;23.708;2023-04-24T14:06:42;25.60;36.60
80218;DHT22;69533;37.974;23.708;2023-04-24T14:09:07;25.50;36.60
80218;DHT22;69533;37.974;23.708;2023-04-24T14:11:34;25.50;36.70
80218;DHT22;69533;37.974;23.708;2023-04-24T14:14:00;25.50;36.80
80218;DHT22;69533;37.974;23.708;2023-04-24T14:16:25;25.50;36.80
80218;DHT22;69533;37.974;23.708;2023-04-24T14:18:51;25.50;36.80
80218;DHT22;69533;37.974;23.708;2023-04-24T14:21:17;25.50;36.90
80218;DHT22;69533;37.974;23.708;2023-04-24T14:23:42;25.50;37.00
80218;DHT22;69533;37.974;23.708;2023-04-24T14:26:09;25.50;37.00
80218;DHT22;69533;37.974;23.708;2023-04-24T14:28:35;25.50;37.00
80218;DHT22;69533;37.974;23.708;2023-04-24T14:31:01;25.40;36.90
80218;DHT22;69533;37.974;23.708;2023-04-24T14:33:27;25.40;36.90
80218;DHT22;69533;37.974;23.708;2023-04-24T14:35:52;25.40;36.80
80218;DHT22;69533;37.974;23.708;2023-04-24T14:38:18;25.40;36.60
80218;DHT22;69533;37.974;23.708;2023-04-24T14:40:44;25.40;36.50
80218;DHT22;69533;37.974;23.708;2023-04-24T14:43:09;25.40;36.50
80218;DHT22;69533;37.974;23.708;2023-04-24T14:45:36;25.40;36.50
80218;DHT22;69533;37.974;23.708;2023-04-24T14:48:02;25.40;36.50
80218;DHT22;69533;37.974;23.708;2023-04-24T14:50:28;25.40;36.50
80218;DHT22;69533;37.974;23.708;2023-04-24T14:52:55;25.30;36.50
80218;DHT22;69533;37.974;23.708;2023-04-24T14:55:23;25.30;36.70
80218;DHT22;69533;37.974;23.708;2023-04-24T14:57:49;25.30;37.00
80218;DHT22;69533;37.974;23.708;2023-04-24T15:00:15;25.30;37.20
80218;DHT22;69533;37.974;23.708;2023-04-24T15:02:42;25.30;37.40
80218;DHT22;69533;37.974;23.708;2023-04-24T15:05:10;25.30;37.40
80218;DHT22;69533;37.974;23.708;2023-04-24T15:07:36;25.30;37.20
80218;DHT22;69533;37.974;23.708;2023-04-24T15:10:02;25.30;37.00
80218;DHT22;69533;37.974;23.708;2023-04-24T15:12:28;25.30;37.10
80218;DHT22;69533;37.974;23.708;2023-04-24T15:14:55;25.20;36.90
80218;DHT22;69533;37.974;23.708;2023-04-24T15:17:21;25.20;36.60
80218;DHT22;69533;37.974;23.708;2023-04-24T15:19:46;25.20;36.30
80218;DHT22;69533;37.974;23.708;2023-04-24T15:22:12;25.20;36.40
80218;DHT22;69533;37.974;23.708;2023-04-24T15:24:38;25.20;36.40
80218;DHT22;69533;37.974;23.708;2023-04-24T15:27:04;25.20;36.40